sensor_id;sensor_type;location;lat;lon;timestamp;P1;durP1;ratioP1;P2;durP2;ratioP2
39970;SDS011;35425;51.142;17.178;2024-02-14T00:01:07;14.45;;;12.25;;
39970;SDS011;35425;51.142;17.178;2024-02-14T00:03:37;14.40;;;12.23;;
39970;SDS011;35425;51.142;17.178;2024-02-14T00:06:05;13.20;;;11.77;;
39970;SDS011;35425;51.142;17.178;2024-02-14T00:08:33;15.05;;;12.07;;
39970;SDS011;35425;51.142;17.178;2024-02-14T00:11:00;13.50;;;11.95;;
39970;SDS011;35425;51.142;17.178;2024-02-14T00:13:28;16.25;;;13.50;;
39970;SDS011;35425;51.142;17.178;2024-02-14T00:15:55;14.77;;;12.93;;
39970;SDS011;35425;51.142;17.178;2024-02-14T00:18:23;15.07;;;13.15;;
39970;SDS011;35425;51.142;17.178;2024-02-14T00:20:50;16.08;;;13.70;;
39970;SDS011;35425;51.142;17.178;2024-02-14T00:23:17;17.05;;;13.90;;
39970;SDS011;35425;51.142;17.178;2024-02-14T00:25:44;16.60;;;13.20;;
39970;SDS011;35425;51.142;17.178;2024-02-14T00:28:11;16.63;;;13.73;;
39970;SDS011;35425;51.142;17.178;2024-02-14T00:30:39;16.50;;;14.27;;
39970;SDS011;35425;51.142;17.178;2024-02-14T00:33:05;16.20;;;13.30;;
39970;SDS011;35425;51.142;17.178;2024-02-14T00:35:33;17.15;;;13.98;;
39970;SDS011;35425;51.142;17.178;2024-02-14T00:38:00;17.63;;;14.20;;
39970;SDS011;35425;51.142;17.178;2024-02-14T00:40:27;18.20;;;14.48;;
39970;SDS011;35425;51.142;17.178;2024-02-14T00:42:54;16.25;;;13.73;;
39970;SDS011;35425;51.142;17.178;2024-02-14T00:45:21;18.13;;;13.50;;
39970;SDS011;35425;51.142;17.178;2024-02-14T00:47:49;17.33;;;14.32;;
39970;SDS011;35425;51.142;17.178;2024-02-14T00:50:16;15.68;;;13.40;;
39970;SDS011;35425;51.142;17.178;2024-02-14T00:52:43;16.33;;;14.25;;
39970;SDS011;35425;51.142;17.178;2024-02-14T00:55:10;16.13;;;13.50;;
39970;SDS011;35425;51.142;17.178;2024-02-14T00:57:37;16.13;;;13.07;;
39970;SDS011;35425;51.142;17.178;2024-02-14T01:00:06;15.63;;;13.25;;
39970;SDS011;35425;51.142;17.178;2024-02-14T01:02:33;16.30;;;13.45;;
39970;SDS011;35425;51.142;17.178;2024-02-14T01:05:00;16.40;;;13.48;;
39970;SDS011;35425;51.142;17.178;2024-02-14T01:07:27;15.70;;;13.13;;
39970;SDS011;35425;51.142;17.178;2024-02-14T01:09:54;15.75;;;12.88;;
39970;SDS011;35425;51.142;17.178;2024-02-14T01:12:21;15.45;;;12.65;;
39970;SDS011;35425;51.142;17.178;2024-02-14T01:14:48;16.38;;;13.30;;
39970;SDS011;35425;51.142;17.178;2024-02-14T01:17:16;15.68;;;12.70;;
39970;SDS011;35425;51.142;17.178;2024-02-14T01:19:43;14.38;;;12.60;;
39970;SDS011;35425;51.142;17.178;2024-02-14T01:22:10;15.13;;;12.25;;
39970;SDS011;35425;51.142;17.178;2024-02-14T01:24:37;13.88;;;11.60;;
39970;SDS011;35425;51.142;17.178;2024-02-14T01:27:06;15.48;;;12.48;;
39970;SDS011;35425;51.142;17.178;2024-02-14T01:29:35;14.60;;;12.20;;
39970;SDS011;35425;51.142;17.178;2024-02-14T01:32:02;12.40;;;11.10;;
39970;SDS011;35425;51.142;17.178;2024-02-14T01:34:31;14.82;;;11.77;;
39970;SDS011;35425;51.142;17.178;2024-02-14T01:36:58;13.00;;;11.57;;
39970;SDS011;35425;51.142;17.178;2024-02-14T01:39:25;13.45;;;10.95;;
39970;SDS011;35425;51.142;17.178;2024-02-14T01:41:52;14.13;;;11.75;;
39970;SDS011;35425;51.142;17.178;2024-02-14T01:44:20;14.48;;;11.98;;
39970;SDS011;35425;51.142;17.178;2024-02-14T01:46:47;12.75;;;11.05;;
39970;SDS011;35425;51.142;17.178;2024-02-14T01:49:15;13.00;;;10.57;;
39970;SDS011;35425;51.142;17.178;2024-02-14T01:51:43;13.27;;;11.43;;
39970;SDS011;35425;51.142;17.178;2024-02-14T01:54:14;13.43;;;10.90;;
39970;SDS011;35425;51.142;17.178;2024-02-14T01:56:42;13.30;;;11.50;;
39970;SDS011;35425;51.142;17.178;2024-02-14T01:59:10;13.00;;;10.52;;
39970;SDS011;35425;51.142;17.178;2024-02-14T02:01:38;11.02;;;9.57;;
39970;SDS011;35425;51.142;17.178;2024-02-14T02:04:05;11.95;;;10.65;;
39970;SDS011;35425;51.142;17.178;2024-02-14T02:06:32;13.00;;;10.40;;
39970;SDS011;35425;51.142;17.178;2024-02-14T02:08:59;14.60;;;11.15;;
39970;SDS011;35425;51.142;17.178;2024-02-14T02:11:29;12.18;;;10.75;;
39970;SDS011;35425;51.142;17.178;2024-02-14T02:13:57;12.50;;;10.77;;
39970;SDS011;35425;51.142;17.178;2024-02-14T02:16:24;11.85;;;10.57;;
39970;SDS011;35425;51.142;17.178;2024-02-14T02:18:51;11.13;;;9.82;;
39970;SDS011;35425;51.142;17.178;2024-02-14T02:21:18;11.18;;;10.07;;
39970;SDS011;35425;51.142;17.178;2024-02-14T02:23:50;12.32;;;10.55;;
39970;SDS011;35425;51.142;17.178;2024-02-14T02:26:18;11.30;;;9.88;;
39970;SDS011;35425;51.142;17.178;2024-02-14T02:28:45;12.88;;;10.88;;
39970;SDS011;35425;51.142;17.178;2024-02-14T02:31:12;11.10;;;9.45;;
39970;SDS011;35425;51.142;17.178;2024-02-14T02:33:39;11.57;;;10.38;;
39970;SDS011;35425;51.142;17.178;2024-02-14T02:36:06;11.18;;;9.65;;
39970;SDS011;35425;51.142;17.178;2024-02-14T02:38:36;11.52;;;9.93;;
39970;SDS011;35425;51.142;17.178;2024-02-14T02:41:04;12.32;;;10.48;;
39970;SDS011;35425;51.142;17.178;2024-02-14T02:43:33;11.60;;;9.77;;
39970;SDS011;35425;51.142;17.178;2024-02-14T02:46:01;11.07;;;9.77;;
39970;SDS011;35425;51.142;17.178;2024-02-14T02:48:27;11.35;;;9.38;;
39970;SDS011;35425;51.142;17.178;2024-02-14T02:50:55;11.80;;;9.82;;
39970;SDS011;35425;51.142;17.178;2024-02-14T02:53:22;11.80;;;9.88;;
39970;SDS011;35425;51.142;17.178;2024-02-14T02:55:49;11.10;;;9.60;;
39970;SDS011;35425;51.142;17.178;2024-02-14T02:58:21;10.25;;;9.18;;
39970;SDS011;35425;51.142;17.178;2024-02-14T03:00:50;10.63;;;9.63;;
39970;SDS011;35425;51.142;17.178;2024-02-14T03:03:18;10.95;;;9.65;;
39970;SDS011;35425;51.142;17.178;2024-02-14T03:05:45;9.98;;;8.65;;
39970;SDS011;35425;51.142;17.178;2024-02-14T03:08:12;11.48;;;9.20;;
39970;SDS011;35425;51.142;17.178;2024-02-14T03:10:42;11.68;;;9.77;;
39970;SDS011;35425;51.142;17.178;2024-02-14T03:13:15;11.55;;;9.80;;
39970;SDS011;35425;51.142;17.178;2024-02-14T03:15:50;10.07;;;8.85;;
39970;SDS011;35425;51.142;17.178;2024-02-14T03:18:19;11.05;;;8.88;;
39970;SDS011;35425;51.142;17.178;2024-02-14T03:20:46;10.02;;;8.95;;
39970;SDS011;35425;51.142;17.178;2024-02-14T03:23:13;9.10;;;8.13;;
39970;SDS011;35425;51.142;17.178;2024-02-14T03:25:45;9.73;;;8.73;;
39970;SDS011;35425;51.142;17.178;2024-02-14T03:28:12;10.40;;;8.93;;
39970;SDS011;35425;51.142;17.178;2024-02-14T03:30:40;10.77;;;9.20;;
39970;SDS011;35425;51.142;17.178;2024-02-14T03:33:07;9.52;;;8.48;;
39970;SDS011;35425;51.142;17.178;2024-02-14T03:35:35;10.10;;;8.63;;
39970;SDS011;35425;51.142;17.178;2024-02-14T03:38:02;9.68;;;8.60;;
39970;SDS011;35425;51.142;17.178;2024-02-14T03:40:29;10.30;;;8.43;;
39970;SDS011;35425;51.142;17.178;2024-02-14T03:42:56;9.98;;;8.75;;
39970;SDS011;35425;51.142;17.178;2024-02-14T03:45:23;9.38;;;8.38;;
39970;SDS011;35425;51.142;17.178;2024-02-14T03:47:50;9.40;;;8.40;;
39970;SDS011;35425;51.142;17.178;2024-02-14T03:50:17;10.02;;;8.80;;
39970;SDS011;35425;51.142;17.178;2024-02-14T03:52:44;9.07;;;8.18;;
39970;SDS011;35425;51.142;17.178;2024-02-14T03:55:12;9.98;;;8.75;;
39970;SDS011;35425;51.142;17.178;2024-02-14T03:57:40;9.57;;;8.52;;
39970;SDS011;35425;51.142;17.178;2024-02-14T04:00:08;9.18;;;8.20;;
39970;SDS011;35425;51.142;17.178;2024-02-14T04:02:38;9.55;;;8.25;;
39970;SDS011;35425;51.142;17.178;2024-02-14T04:05:06;9.60;;;8.20;;
39970;SDS011;35425;51.142;17.178;2024-02-14T04:07:33;9.23;;;8.20;;
39970;SDS011;35425;51.142;17.178;2024-02-14T04:10:04;8.93;;;7.97;;
39970;SDS011;35425;51.142;17.178;2024-02-14T04:12:32;9.05;;;8.13;;
39970;SDS011;35425;51.142;17.178;2024-02-14T04:14:59;8.40;;;7.47;;
39970;SDS011;35425;51.142;17.178;2024-02-14T04:17:26;9.00;;;8.00;;
39970;SDS011;35425;51.142;17.178;2024-02-14T04:19:53;8.63;;;7.72;;
39970;SDS011;35425;51.142;17.178;2024-02-14T04:22:20;9.27;;;8.18;;
39970;SDS011;35425;51.142;17.178;2024-02-14T04:24:47;9.35;;;8.05;;
39970;SDS011;35425;51.142;17.178;2024-02-14T04:27:14;8.55;;;7.60;;
39970;SDS011;35425;51.142;17.178;2024-02-14T04:29:44;9.00;;;8.10;;
39970;SDS011;35425;51.142;17.178;2024-02-14T04:32:12;9.43;;;8.30;;
39970;SDS011;35425;51.142;17.178;2024-02-14T04:34:39;9.00;;;7.72;;
39970;SDS011;35425;51.142;17.178;2024-02-14T04:37:07;9.55;;;8.02;;
39970;SDS011;35425;51.142;17.178;2024-02-14T04:39:36;9.20;;;8.02;;
39970;SDS011;35425;51.142;17.178;2024-02-14T04:42:03;10.27;;;8.25;;
39970;SDS011;35425;51.142;17.178;2024-02-14T04:44:31;9.35;;;8.35;;
39970;SDS011;35425;51.142;17.178;2024-02-14T04:46:58;8.73;;;7.82;;
39970;SDS011;35425;51.142;17.178;2024-02-14T04:49:26;9.25;;;8.07;;
39970;SDS011;35425;51.142;17.178;2024-02-14T04:51:56;9.13;;;8.10;;
39970;SDS011;35425;51.142;17.178;2024-02-14T04:54:23;10.00;;;8.15;;
39970;SDS011;35425;51.142;17.178;2024-02-14T04:56:50;9.43;;;8.30;;
39970;SDS011;35425;51.142;17.178;2024-02-14T04:59:23;10.13;;;8.00;;
39970;SDS011;35425;51.142;17.178;2024-02-14T05:01:50;10.43;;;8.30;;
39970;SDS011;35425;51.142;17.178;2024-02-14T05:04:18;9.20;;;8.07;;
39970;SDS011;35425;51.142;17.178;2024-02-14T05:06:51;9.20;;;7.63;;
39970;SDS011;35425;51.142;17.178;2024-02-14T05:09:24;9.02;;;7.57;;
39970;SDS011;35425;51.142;17.178;2024-02-14T05:11:51;8.73;;;7.35;;
39970;SDS011;35425;51.142;17.178;2024-02-14T05:14:19;7.97;;;7.03;;
39970;SDS011;35425;51.142;17.178;2024-02-14T05:16:46;9.38;;;8.23;;
39970;SDS011;35425;51.142;17.178;2024-02-14T05:19:14;8.13;;;7.30;;
39970;SDS011;35425;51.142;17.178;2024-02-14T05:21:41;8.40;;;7.50;;
39970;SDS011;35425;51.142;17.178;2024-02-14T05:24:08;10.20;;;7.82;;
39970;SDS011;35425;51.142;17.178;2024-02-14T05:26:35;8.43;;;7.35;;
39970;SDS011;35425;51.142;17.178;2024-02-14T05:29:02;8.80;;;7.90;;
39970;SDS011;35425;51.142;17.178;2024-02-14T05:31:42;9.35;;;7.68;;
39970;SDS011;35425;51.142;17.178;2024-02-14T05:34:09;9.15;;;7.53;;
39970;SDS011;35425;51.142;17.178;2024-02-14T05:36:37;9.85;;;8.55;;
39970;SDS011;35425;51.142;17.178;2024-02-14T05:39:04;8.98;;;7.60;;
39970;SDS011;35425;51.142;17.178;2024-02-14T05:41:34;9.77;;;8.10;;
39970;SDS011;35425;51.142;17.178;2024-02-14T05:44:02;9.32;;;7.38;;
39970;SDS011;35425;51.142;17.178;2024-02-14T05:46:28;9.80;;;8.10;;
39970;SDS011;35425;51.142;17.178;2024-02-14T05:48:55;9.48;;;8.10;;
39970;SDS011;35425;51.142;17.178;2024-02-14T05:51:24;9.73;;;8.13;;
39970;SDS011;35425;51.142;17.178;2024-02-14T05:53:51;9.90;;;8.27;;
39970;SDS011;35425;51.142;17.178;2024-02-14T05:56:19;9.35;;;7.60;;
39970;SDS011;35425;51.142;17.178;2024-02-14T05:58:46;9.13;;;7.80;;
39970;SDS011;35425;51.142;17.178;2024-02-14T06:01:13;9.25;;;7.85;;
39970;SDS011;35425;51.142;17.178;2024-02-14T06:03:43;9.98;;;8.23;;
39970;SDS011;35425;51.142;17.178;2024-02-14T06:06:10;9.75;;;8.15;;
39970;SDS011;35425;51.142;17.178;2024-02-14T06:08:38;8.63;;;7.22;;
39970;SDS011;35425;51.142;17.178;2024-02-14T06:11:05;9.20;;;7.55;;
39970;SDS011;35425;51.142;17.178;2024-02-14T06:13:33;9.27;;;7.60;;
39970;SDS011;35425;51.142;17.178;2024-02-14T06:16:00;8.32;;;7.20;;
39970;SDS011;35425;51.142;17.178;2024-02-14T06:18:27;9.13;;;7.53;;
39970;SDS011;35425;51.142;17.178;2024-02-14T06:20:53;9.18;;;7.28;;
39970;SDS011;35425;51.142;17.178;2024-02-14T06:23:20;9.80;;;8.13;;
39970;SDS011;35425;51.142;17.178;2024-02-14T06:25:47;8.93;;;6.90;;
39970;SDS011;35425;51.142;17.178;2024-02-14T06:28:15;8.25;;;7.43;;
39970;SDS011;35425;51.142;17.178;2024-02-14T06:30:41;9.65;;;7.35;;
39970;SDS011;35425;51.142;17.178;2024-02-14T06:33:08;8.63;;;7.35;;
39970;SDS011;35425;51.142;17.178;2024-02-14T06:35:35;8.48;;;7.50;;
39970;SDS011;35425;51.142;17.178;2024-02-14T06:38:02;11.10;;;7.75;;
39970;SDS011;35425;51.142;17.178;2024-02-14T06:40:31;9.23;;;7.63;;
39970;SDS011;35425;51.142;17.178;2024-02-14T06:42:58;9.20;;;7.13;;
39970;SDS011;35425;51.142;17.178;2024-02-14T06:45:27;10.93;;;8.30;;
39970;SDS011;35425;51.142;17.178;2024-02-14T06:47:54;8.65;;;7.43;;
39970;SDS011;35425;51.142;17.178;2024-02-14T06:50:22;8.88;;;7.32;;
39970;SDS011;35425;51.142;17.178;2024-02-14T06:52:49;8.00;;;7.20;;
39970;SDS011;35425;51.142;17.178;2024-02-14T06:55:16;9.63;;;7.97;;
39970;SDS011;35425;51.142;17.178;2024-02-14T06:57:43;9.35;;;7.85;;
39970;SDS011;35425;51.142;17.178;2024-02-14T07:00:10;8.52;;;7.70;;
39970;SDS011;35425;51.142;17.178;2024-02-14T07:02:37;8.73;;;7.53;;
39970;SDS011;35425;51.142;17.178;2024-02-14T07:05:04;9.32;;;7.93;;
39970;SDS011;35425;51.142;17.178;2024-02-14T07:07:33;8.80;;;7.70;;
39970;SDS011;35425;51.142;17.178;2024-02-14T07:10:03;8.73;;;7.82;;
39970;SDS011;35425;51.142;17.178;2024-02-14T07:12:34;8.57;;;7.70;;
39970;SDS011;35425;51.142;17.178;2024-02-14T07:15:03;8.93;;;7.93;;
39970;SDS011;35425;51.142;17.178;2024-02-14T07:17:31;8.55;;;7.60;;
39970;SDS011;35425;51.142;17.178;2024-02-14T07:20:00;8.45;;;7.38;;
39970;SDS011;35425;51.142;17.178;2024-02-14T07:22:27;10.20;;;7.88;;
39970;SDS011;35425;51.142;17.178;2024-02-14T07:24:58;9.68;;;8.20;;
39970;SDS011;35425;51.142;17.178;2024-02-14T07:27:25;9.40;;;8.38;;
39970;SDS011;35425;51.142;17.178;2024-02-14T07:29:52;10.07;;;8.15;;
39970;SDS011;35425;51.142;17.178;2024-02-14T07:32:19;10.57;;;8.38;;
39970;SDS011;35425;51.142;17.178;2024-02-14T07:34:48;9.85;;;8.05;;
39970;SDS011;35425;51.142;17.178;2024-02-14T07:37:14;9.45;;;8.45;;
39970;SDS011;35425;51.142;17.178;2024-02-14T07:39:44;9.30;;;7.75;;
39970;SDS011;35425;51.142;17.178;2024-02-14T07:42:16;8.98;;;8.07;;
39970;SDS011;35425;51.142;17.178;2024-02-14T07:44:43;8.73;;;7.50;;
39970;SDS011;35425;51.142;17.178;2024-02-14T07:47:10;9.07;;;7.80;;
39970;SDS011;35425;51.142;17.178;2024-02-14T07:49:38;9.73;;;7.97;;
39970;SDS011;35425;51.142;17.178;2024-02-14T07:52:05;7.97;;;7.18;;
39970;SDS011;35425;51.142;17.178;2024-02-14T07:54:32;9.10;;;8.10;;
39970;SDS011;35425;51.142;17.178;2024-02-14T07:57:00;8.70;;;7.50;;
39970;SDS011;35425;51.142;17.178;2024-02-14T07:59:27;9.48;;;8.10;;
39970;SDS011;35425;51.142;17.178;2024-02-14T08:01:57;8.35;;;7.22;;
39970;SDS011;35425;51.142;17.178;2024-02-14T08:04:24;8.57;;;7.65;;
39970;SDS011;35425;51.142;17.178;2024-02-14T08:06:51;8.50;;;7.60;;
39970;SDS011;35425;51.142;17.178;2024-02-14T08:09:19;8.27;;;7.47;;
39970;SDS011;35425;51.142;17.178;2024-02-14T08:11:46;8.60;;;7.38;;
39970;SDS011;35425;51.142;17.178;2024-02-14T08:14:13;9.63;;;7.97;;
39970;SDS011;35425;51.142;17.178;2024-02-14T08:16:40;8.05;;;7.20;;
39970;SDS011;35425;51.142;17.178;2024-02-14T08:19:07;8.52;;;7.63;;
39970;SDS011;35425;51.142;17.178;2024-02-14T08:21:34;9.30;;;8.30;;
39970;SDS011;35425;51.142;17.178;2024-02-14T08:24:01;9.50;;;7.95;;
39970;SDS011;35425;51.142;17.178;2024-02-14T08:26:32;9.40;;;7.97;;
39970;SDS011;35425;51.142;17.178;2024-02-14T08:28:59;9.55;;;8.27;;
39970;SDS011;35425;51.142;17.178;2024-02-14T08:31:27;9.43;;;7.97;;
39970;SDS011;35425;51.142;17.178;2024-02-14T08:33:54;8.65;;;7.75;;
39970;SDS011;35425;51.142;17.178;2024-02-14T08:36:22;9.07;;;7.68;;
39970;SDS011;35425;51.142;17.178;2024-02-14T08:38:49;8.77;;;7.72;;
39970;SDS011;35425;51.142;17.178;2024-02-14T08:41:19;8.73;;;7.82;;
39970;SDS011;35425;51.142;17.178;2024-02-14T08:43:46;8.98;;;7.65;;
39970;SDS011;35425;51.142;17.178;2024-02-14T08:46:13;8.50;;;7.60;;
39970;SDS011;35425;51.142;17.178;2024-02-14T08:48:41;9.57;;;7.90;;
39970;SDS011;35425;51.142;17.178;2024-02-14T08:51:15;10.18;;;7.78;;
39970;SDS011;35425;51.142;17.178;2024-02-14T08:53:42;9.60;;;8.07;;
39970;SDS011;35425;51.142;17.178;2024-02-14T08:56:10;8.82;;;7.70;;
39970;SDS011;35425;51.142;17.178;2024-02-14T08:58:39;9.27;;;7.15;;
39970;SDS011;35425;51.142;17.178;2024-02-14T09:01:06;9.10;;;7.30;;
39970;SDS011;35425;51.142;17.178;2024-02-14T09:03:44;8.65;;;7.53;;
39970;SDS011;35425;51.142;17.178;2024-02-14T09:06:16;9.40;;;7.57;;
39970;SDS011;35425;51.142;17.178;2024-02-14T09:08:48;9.30;;;7.60;;
39970;SDS011;35425;51.142;17.178;2024-02-14T09:11:15;8.68;;;7.45;;
39970;SDS011;35425;51.142;17.178;2024-02-14T09:13:42;8.30;;;7.40;;
39970;SDS011;35425;51.142;17.178;2024-02-14T09:16:09;8.88;;;7.45;;
39970;SDS011;35425;51.142;17.178;2024-02-14T09:18:37;8.45;;;7.30;;
39970;SDS011;35425;51.142;17.178;2024-02-14T09:21:07;8.25;;;6.78;;
39970;SDS011;35425;51.142;17.178;2024-02-14T09:23:35;7.82;;;7.03;;
39970;SDS011;35425;51.142;17.178;2024-02-14T09:26:06;9.02;;;7.38;;
39970;SDS011;35425;51.142;17.178;2024-02-14T09:28:33;8.80;;;7.40;;
39970;SDS011;35425;51.142;17.178;2024-02-14T09:31:02;8.27;;;7.07;;
39970;SDS011;35425;51.142;17.178;2024-02-14T09:33:30;7.45;;;6.63;;
39970;SDS011;35425;51.142;17.178;2024-02-14T09:35:58;7.90;;;6.88;;
39970;SDS011;35425;51.142;17.178;2024-02-14T09:38:26;7.18;;;6.47;;
39970;SDS011;35425;51.142;17.178;2024-02-14T09:40:54;7.50;;;6.63;;
39970;SDS011;35425;51.142;17.178;2024-02-14T09:45:52;7.10;;;6.40;;
39970;SDS011;35425;51.142;17.178;2024-02-14T09:48:21;6.75;;;5.90;;
39970;SDS011;35425;51.142;17.178;2024-02-14T09:50:49;8.18;;;6.38;;
39970;SDS011;35425;51.142;17.178;2024-02-14T09:53:19;7.45;;;6.40;;
39970;SDS011;35425;51.142;17.178;2024-02-14T09:55:46;7.68;;;6.07;;
39970;SDS011;35425;51.142;17.178;2024-02-14T09:58:13;8.00;;;6.28;;
39970;SDS011;35425;51.142;17.178;2024-02-14T10:00:41;6.60;;;5.80;;
39970;SDS011;35425;51.142;17.178;2024-02-14T10:03:08;7.13;;;5.47;;
39970;SDS011;35425;51.142;17.178;2024-02-14T10:05:36;6.28;;;5.55;;
39970;SDS011;35425;51.142;17.178;2024-02-14T10:08:03;6.55;;;5.47;;
39970;SDS011;35425;51.142;17.178;2024-02-14T10:10:33;6.50;;;5.38;;
39970;SDS011;35425;51.142;17.178;2024-02-14T10:13:03;8.10;;;5.95;;
39970;SDS011;35425;51.142;17.178;2024-02-14T10:15:31;5.15;;;4.65;;
39970;SDS011;35425;51.142;17.178;2024-02-14T10:18:03;6.15;;;5.07;;
39970;SDS011;35425;51.142;17.178;2024-02-14T10:20:30;6.68;;;5.32;;
39970;SDS011;35425;51.142;17.178;2024-02-14T10:23:01;5.97;;;5.20;;
39970;SDS011;35425;51.142;17.178;2024-02-14T10:25:31;6.35;;;5.07;;
39970;SDS011;35425;51.142;17.178;2024-02-14T10:28:04;5.18;;;4.68;;
39970;SDS011;35425;51.142;17.178;2024-02-14T10:30:32;5.43;;;4.80;;
39970;SDS011;35425;51.142;17.178;2024-02-14T10:32:59;5.65;;;4.95;;
39970;SDS011;35425;51.142;17.178;2024-02-14T10:35:42;7.05;;;5.05;;
39970;SDS011;35425;51.142;17.178;2024-02-14T10:38:10;5.18;;;4.53;;
39970;SDS011;35425;51.142;17.178;2024-02-14T10:40:38;4.38;;;3.85;;
39970;SDS011;35425;51.142;17.178;2024-02-14T10:43:06;4.80;;;4.30;;
39970;SDS011;35425;51.142;17.178;2024-02-14T10:45:35;5.18;;;4.50;;
39970;SDS011;35425;51.142;17.178;2024-02-14T10:48:03;4.80;;;4.18;;
39970;SDS011;35425;51.142;17.178;2024-02-14T10:50:32;5.28;;;4.28;;
39970;SDS011;35425;51.142;17.178;2024-02-14T10:53:00;4.95;;;4.40;;
39970;SDS011;35425;51.142;17.178;2024-02-14T10:55:30;5.45;;;4.30;;
39970;SDS011;35425;51.142;17.178;2024-02-14T10:57:58;5.60;;;4.13;;
39970;SDS011;35425;51.142;17.178;2024-02-14T11:00:25;4.45;;;3.70;;
39970;SDS011;35425;51.142;17.178;2024-02-14T11:02:53;5.45;;;4.40;;
39970;SDS011;35425;51.142;17.178;2024-02-14T11:05:21;5.05;;;3.72;;
39970;SDS011;35425;51.142;17.178;2024-02-14T11:07:52;4.97;;;3.78;;
39970;SDS011;35425;51.142;17.178;2024-02-14T11:10:20;4.28;;;3.60;;
39970;SDS011;35425;51.142;17.178;2024-02-14T11:12:48;4.22;;;3.40;;
39970;SDS011;35425;51.142;17.178;2024-02-14T11:15:20;4.43;;;3.45;;
39970;SDS011;35425;51.142;17.178;2024-02-14T11:17:48;4.45;;;3.25;;
39970;SDS011;35425;51.142;17.178;2024-02-14T11:20:20;4.50;;;3.60;;
39970;SDS011;35425;51.142;17.178;2024-02-14T11:22:57;4.10;;;3.30;;
39970;SDS011;35425;51.142;17.178;2024-02-14T11:25:28;3.85;;;3.45;;
39970;SDS011;35425;51.142;17.178;2024-02-14T11:27:56;3.85;;;2.90;;
39970;SDS011;35425;51.142;17.178;2024-02-14T11:33:20;3.55;;;3.17;;
39970;SDS011;35425;51.142;17.178;2024-02-14T11:35:48;3.55;;;2.92;;
39970;SDS011;35425;51.142;17.178;2024-02-14T11:38:20;3.83;;;3.30;;
39970;SDS011;35425;51.142;17.178;2024-02-14T11:40:49;3.78;;;3.03;;
39970;SDS011;35425;51.142;17.178;2024-02-14T11:43:19;3.58;;;2.85;;
39970;SDS011;35425;51.142;17.178;2024-02-14T11:45:52;3.80;;;3.00;;
39970;SDS011;35425;51.142;17.178;2024-02-14T11:48:19;4.13;;;3.15;;
39970;SDS011;35425;51.142;17.178;2024-02-14T11:50:53;4.35;;;2.83;;
39970;SDS011;35425;51.142;17.178;2024-02-14T11:53:23;4.07;;;2.83;;
39970;SDS011;35425;51.142;17.178;2024-02-14T11:55:55;3.83;;;2.72;;
39970;SDS011;35425;51.142;17.178;2024-02-14T11:58:22;3.20;;;2.83;;
39970;SDS011;35425;51.142;17.178;2024-02-14T12:00:49;3.72;;;2.40;;
39970;SDS011;35425;51.142;17.178;2024-02-14T12:03:20;4.00;;;2.67;;
39970;SDS011;35425;51.142;17.178;2024-02-14T12:05:48;3.47;;;2.67;;
39970;SDS011;35425;51.142;17.178;2024-02-14T12:08:18;4.15;;;3.03;;
39970;SDS011;35425;51.142;17.178;2024-02-14T12:10:45;2.95;;;2.55;;
39970;SDS011;35425;51.142;17.178;2024-02-14T12:13:20;3.28;;;2.58;;
39970;SDS011;35425;51.142;17.178;2024-02-14T12:15:50;2.67;;;2.13;;
39970;SDS011;35425;51.142;17.178;2024-02-14T12:18:19;2.78;;;2.22;;
39970;SDS011;35425;51.142;17.178;2024-02-14T12:20:47;3.25;;;2.40;;
39970;SDS011;35425;51.142;17.178;2024-02-14T12:23:22;2.70;;;2.15;;
39970;SDS011;35425;51.142;17.178;2024-02-14T12:25:50;3.65;;;2.28;;
39970;SDS011;35425;51.142;17.178;2024-02-14T12:28:18;3.63;;;2.20;;
39970;SDS011;35425;51.142;17.178;2024-02-14T12:30:51;2.30;;;2.10;;
39970;SDS011;35425;51.142;17.178;2024-02-14T12:35:55;2.90;;;2.10;;
39970;SDS011;35425;51.142;17.178;2024-02-14T12:38:23;2.65;;;2.17;;
39970;SDS011;35425;51.142;17.178;2024-02-14T12:40:50;2.30;;;1.92;;
39970;SDS011;35425;51.142;17.178;2024-02-14T12:43:24;2.63;;;1.98;;
39970;SDS011;35425;51.142;17.178;2024-02-14T12:45:51;2.90;;;1.90;;
39970;SDS011;35425;51.142;17.178;2024-02-14T12:48:22;2.70;;;1.92;;
39970;SDS011;35425;51.142;17.178;2024-02-14T12:50:51;2.13;;;1.92;;
39970;SDS011;35425;51.142;17.178;2024-02-14T12:53:28;3.25;;;2.45;;
39970;SDS011;35425;51.142;17.178;2024-02-14T12:56:00;2.78;;;2.47;;
39970;SDS011;35425;51.142;17.178;2024-02-14T12:58:27;2.55;;;2.00;;
39970;SDS011;35425;51.142;17.178;2024-02-14T13:00:55;2.00;;;1.80;;
39970;SDS011;35425;51.142;17.178;2024-02-14T13:03:22;3.88;;;2.35;;
39970;SDS011;35425;51.142;17.178;2024-02-14T13:05:49;3.10;;;2.20;;
39970;SDS011;35425;51.142;17.178;2024-02-14T13:08:16;2.40;;;2.00;;
39970;SDS011;35425;51.142;17.178;2024-02-14T13:10:44;3.33;;;2.60;;
39970;SDS011;35425;51.142;17.178;2024-02-14T13:13:11;3.50;;;2.63;;
39970;SDS011;35425;51.142;17.178;2024-02-14T13:15:38;2.47;;;2.10;;
39970;SDS011;35425;51.142;17.178;2024-02-14T13:18:07;2.70;;;2.10;;
39970;SDS011;35425;51.142;17.178;2024-02-14T13:20:34;4.97;;;2.58;;
39970;SDS011;35425;51.142;17.178;2024-02-14T13:23:02;3.95;;;2.42;;
39970;SDS011;35425;51.142;17.178;2024-02-14T13:25:32;2.83;;;2.03;;
39970;SDS011;35425;51.142;17.178;2024-02-14T13:28:00;3.63;;;2.70;;
39970;SDS011;35425;51.142;17.178;2024-02-14T13:30:30;3.97;;;2.30;;
39970;SDS011;35425;51.142;17.178;2024-02-14T13:32:57;2.70;;;2.45;;
39970;SDS011;35425;51.142;17.178;2024-02-14T13:35:24;2.83;;;2.20;;
39970;SDS011;35425;51.142;17.178;2024-02-14T13:37:51;3.47;;;2.42;;
39970;SDS011;35425;51.142;17.178;2024-02-14T13:40:18;2.50;;;2.20;;
39970;SDS011;35425;51.142;17.178;2024-02-14T13:42:45;3.13;;;2.38;;
39970;SDS011;35425;51.142;17.178;2024-02-14T13:45:12;2.75;;;2.35;;
39970;SDS011;35425;51.142;17.178;2024-02-14T13:47:40;2.33;;;2.00;;
39970;SDS011;35425;51.142;17.178;2024-02-14T13:50:09;2.53;;;2.30;;
39970;SDS011;35425;51.142;17.178;2024-02-14T13:52:36;2.40;;;2.08;;
39970;SDS011;35425;51.142;17.178;2024-02-14T13:55:04;2.65;;;2.42;;
39970;SDS011;35425;51.142;17.178;2024-02-14T13:57:33;3.42;;;2.30;;
39970;SDS011;35425;51.142;17.178;2024-02-14T14:00:00;3.35;;;2.17;;
39970;SDS011;35425;51.142;17.178;2024-02-14T14:02:27;3.97;;;3.05;;
39970;SDS011;35425;51.142;17.178;2024-02-14T14:04:55;3.50;;;2.90;;
39970;SDS011;35425;51.142;17.178;2024-02-14T14:07:22;4.22;;;2.40;;
39970;SDS011;35425;51.142;17.178;2024-02-14T14:09:50;3.65;;;2.63;;
39970;SDS011;35425;51.142;17.178;2024-02-14T14:12:17;3.17;;;2.42;;
39970;SDS011;35425;51.142;17.178;2024-02-14T14:14:44;3.80;;;2.78;;
39970;SDS011;35425;51.142;17.178;2024-02-14T14:17:11;2.30;;;2.10;;
39970;SDS011;35425;51.142;17.178;2024-02-14T14:19:38;2.60;;;2.33;;
39970;SDS011;35425;51.142;17.178;2024-02-14T14:22:06;3.63;;;2.47;;
39970;SDS011;35425;51.142;17.178;2024-02-14T14:24:35;3.05;;;2.40;;
39970;SDS011;35425;51.142;17.178;2024-02-14T14:27:02;2.85;;;2.20;;
39970;SDS011;35425;51.142;17.178;2024-02-14T14:29:29;4.03;;;2.42;;
39970;SDS011;35425;51.142;17.178;2024-02-14T14:31:56;3.88;;;2.40;;
39970;SDS011;35425;51.142;17.178;2024-02-14T14:34:26;2.60;;;2.10;;
39970;SDS011;35425;51.142;17.178;2024-02-14T14:36:53;3.63;;;3.00;;
39970;SDS011;35425;51.142;17.178;2024-02-14T14:39:21;2.97;;;2.20;;
39970;SDS011;35425;51.142;17.178;2024-02-14T14:41:48;2.95;;;2.15;;